Time;durP1;ratioP1;P1;durP2;ratioP2;P2;SDS_P1;SDS_P2;PMS_P1;PMS_P2;Temp;Humidity;BMP_temperature;BMP_pressure;BME280_temperature;BME280_humidity;BME280_pressure;Samples;Min_cycle;Max_cycle;Signal;HPM_P1;HPM_P2
2023/02/19 00:00:17;;;;;;;35.30;21.40;;;;;;;6.65;100.00;97044.27;110246;1242;70712;-69
2023/02/19 00:03:06;;;;;;;38.10;22.10;;;;;;;6.68;100.00;97036.27;110148;1241;69669;-70
2023/02/19 00:05:36;;;;;;;37.40;24.10;;;;;;;6.62;100.00;97037.84;110217;1242;69581;-70
2023/02/19 00:08:06;;;;;;;34.30;22.10;;;;;;;6.57;100.00;97039.73;110266;1242;58874;-70
2023/02/19 00:10:35;;;;;;;34.80;20.70;;;;;;;6.51;100.00;97037.02;110309;1241;58831;-70
2023/02/19 00:13:04;;;;;;;41.20;24.40;;;;;;;6.48;100.00;97037.86;110273;1242;70605;-70
2023/02/19 00:15:33;;;;;;;40.90;22.70;;;;;;;6.46;100.00;97038.37;110211;1242;69186;-70
2023/02/19 00:18:04;;;;;;;38.10;23.00;;;;;;;6.43;100.00;97038.92;110271;1242;69951;-70
2023/02/19 00:20:33;;;;;;;42.10;23.80;;;;;;;6.41;100.00;97040.71;110215;1240;58986;-70
2023/02/19 00:23:02;;;;;;;41.60;24.30;;;;;;;6.45;100.00;97040.70;110130;1244;58921;-70
2023/02/19 00:25:36;;;;;;;38.90;24.70;;;;;;;6.45;100.00;97042.59;110194;1242;69871;-69
2023/02/19 00:28:05;;;;;;;35.10;22.40;;;;;;;6.46;100.00;97043.05;110240;1240;68508;-70
2023/02/19 00:30:35;;;;;;;38.00;22.30;;;;;;;6.46;100.00;97039.58;110256;1242;68291;-70
2023/02/19 00:33:04;;;;;;;35.80;22.60;;;;;;;6.47;100.00;97043.29;110192;1241;58931;-69
2023/02/19 00:35:34;;;;;;;38.10;23.30;;;;;;;6.45;100.00;97041.50;110209;1245;58830;-69
2023/02/19 00:38:04;;;;;;;33.60;20.50;;;;;;;6.41;100.00;97038.48;110234;1242;71160;-69
2023/02/19 00:40:33;;;;;;;38.90;23.70;;;;;;;6.42;100.00;97034.09;110215;1242;69833;-70
2023/02/19 00:43:02;;;;;;;36.10;22.60;;;;;;;6.44;100.00;97030.17;110275;1242;69840;-70
2023/02/19 00:45:33;;;;;;;39.20;23.40;;;;;;;6.43;100.00;97029.86;110146;1245;58956;-70
2023/02/19 00:48:02;;;;;;;34.50;21.30;;;;;;;6.42;100.00;97030.99;110291;1241;58864;-69
2023/02/19 00:50:32;;;;;;;35.50;22.80;;;;;;;6.43;100.00;97035.98;110103;1246;70606;-69
2023/02/19 00:53:02;;;;;;;42.00;24.60;;;;;;;6.41;100.00;97029.64;110102;1241;68916;-69
2023/02/19 00:55:31;;;;;;;39.40;23.70;;;;;;;6.41;100.00;97026.01;110146;1241;69268;-69
2023/02/19 00:58:01;;;;;;;40.20;22.40;;;;;;;6.39;100.00;97028.72;110110;1243;58912;-69
2023/02/19 01:00:32;;;;;;;38.20;22.40;;;;;;;6.37;100.00;97033.89;110288;1241;58943;-68
2023/02/19 01:03:01;;;;;;;40.40;23.60;;;;;;;6.36;100.00;97034.98;110281;1241;71268;-69
2023/02/19 01:05:30;;;;;;;36.20;20.20;;;;;;;6.36;100.00;97034.09;110254;1247;69356;-69
2023/02/19 01:08:00;;;;;;;36.30;22.00;;;;;;;6.35;100.00;97032.61;110286;1241;68562;-69
2023/02/19 01:10:30;;;;;;;30.60;20.40;;;;;;;6.35;100.00;97041.79;109956;1245;58904;-70
2023/02/19 01:13:00;;;;;;;35.50;21.10;;;;;;;6.35;100.00;97040.43;110203;1243;58832;-70
2023/02/19 01:15:32;;;;;;;35.10;21.60;;;;;;;6.36;100.00;97042.27;110160;1243;70575;-69
2023/02/19 01:18:01;;;;;;;38.30;22.30;;;;;;;6.38;100.00;97044.07;110168;1243;70230;-68
2023/02/19 01:20:32;;;;;;;33.70;20.80;;;;;;;6.38;100.00;97041.78;110093;1245;68398;-68
2023/02/19 01:23:01;;;;;;;34.00;21.30;;;;;;;6.40;100.00;97047.38;110220;1242;58882;-68
2023/02/19 01:25:30;;;;;;;34.70;21.00;;;;;;;6.43;100.00;97047.40;110223;1241;58922;-68
2023/02/19 01:27:59;;;;;;;30.10;18.60;;;;;;;6.44;100.00;97051.83;110240;1241;70588;-70
2023/02/19 01:30:29;;;;;;;32.00;20.40;;;;;;;6.44;100.00;97052.83;110163;1243;69583;-69
2023/02/19 01:32:59;;;;;;;27.40;17.40;;;;;;;6.44;100.00;97049.90;110209;1242;68335;-68
2023/02/19 01:35:29;;;;;;;31.30;19.20;;;;;;;6.45;100.00;97050.89;110276;1242;58912;-69
2023/02/19 01:37:58;;;;;;;27.60;17.80;;;;;;;6.45;100.00;97053.66;110268;1241;58871;-69
2023/02/19 01:40:28;;;;;;;26.50;16.40;;;;;;;6.44;100.00;97052.00;110208;1242;70604;-69
2023/02/19 01:42:57;;;;;;;30.80;18.60;;;;;;;6.44;100.00;97050.27;110261;1246;69808;-68
2023/02/19 01:45:34;;;;;;;33.00;18.50;;;;;;;6.44;100.00;97054.42;110150;1243;69228;-69
2023/02/19 01:48:16;;;;;;;30.40;19.10;;;;;;;6.46;100.00;97054.48;110070;1244;59005;-69
2023/02/19 01:51:10;;;;;;;23.70;15.80;;;;;;;6.48;100.00;97051.89;110168;1246;58944;-68
2023/02/19 01:53:48;;;;;;;25.80;15.20;;;;;;;6.53;100.00;97053.83;110125;1244;69856;-69
2023/02/19 01:56:19;;;;;;;26.50;15.60;;;;;;;6.58;99.60;97052.64;110176;1245;69179;-68
2023/02/19 01:58:50;;;;;;;21.90;15.30;;;;;;;6.63;98.99;97055.42;110161;1241;69267;-68
2023/02/19 02:01:20;;;;;;;19.80;12.90;;;;;;;6.63;98.88;97054.92;110134;1247;58934;-68
2023/02/19 02:03:50;;;;;;;;;;;;;;;6.62;98.48;97052.58;110179;1245;59018;-69
2023/02/19 02:06:28;;;;;;;22.10;14.60;;;;;;;6.60;97.73;97051.79;110132;1245;70568;-68
2023/02/19 02:11:51;;;;;;;20.00;12.80;;;;;;;6.73;95.94;97058.83;110107;1246;68731;-69
2023/02/19 02:14:26;;;;;;;21.20;13.00;;;;;;;6.74;95.81;97053.75;110163;1242;58939;-69
2023/02/19 02:17:14;;;;;;;19.00;12.30;;;;;;;6.75;95.59;97057.52;110156;1243;58902;-70
2023/02/19 02:20:02;;;;;;;19.20;12.50;;;;;;;6.76;95.63;97055.54;110227;1241;71601;-70
2023/02/19 02:22:40;;;;;;;19.40;12.50;;;;;;;6.70;95.62;97058.67;110161;1243;68481;-70
2023/02/19 02:25:35;;;;;;;19.00;12.10;;;;;;;6.69;94.80;97058.72;110120;1245;69294;-68
2023/02/19 02:28:14;;;;;;;19.00;11.90;;;;;;;6.73;94.33;97062.61;110183;1241;59678;-68
2023/02/19 02:30:58;;;;;;;22.30;12.60;;;;;;;6.82;93.39;97072.45;110170;1245;59630;-68
2023/02/19 02:33:44;;;;;;;19.80;12.80;;;;;;;6.86;93.18;97079.31;110137;1241;71164;-68
2023/02/19 02:36:26;;;;;;;21.50;13.00;;;;;;;6.95;92.18;97081.02;110180;1244;69227;-68
2023/02/19 02:38:57;;;;;;;19.30;13.20;;;;;;;7.02;91.73;97088.00;110125;1244;69599;-68
2023/02/19 02:41:27;;;;;;;21.50;13.10;;;;;;;7.04;91.67;97093.04;110244;1245;59734;-69
2023/02/19 02:43:56;;;;;;;21.70;13.20;;;;;;;7.09;90.78;97091.31;110117;1245;59634;-69
2023/02/19 02:46:34;;;;;;;19.80;12.40;;;;;;;7.14;90.63;97099.17;109868;1243;71964;-69
2023/02/19 02:49:11;;;;;;;22.00;13.00;;;;;;;7.24;89.21;97103.05;109900;1245;69424;-69
2023/02/19 02:51:46;;;;;;;19.00;12.40;;;;;;;7.27;90.12;97106.34;110147;1246;69900;-68
2023/02/19 02:57:30;;;;;;;18.00;13.60;;;;;;;7.36;88.74;97112.35;109895;1241;59734;-68
2023/02/19 03:00:02;;;;;;;16.90;10.30;;;;;;;7.39;88.60;97114.54;110196;1245;71402;-68
2023/02/19 03:02:35;;;;;;;19.30;12.20;;;;;;;7.40;88.25;97125.89;110117;1250;69129;-68
2023/02/19 03:08:29;;;;;;;16.70;11.60;;;;;;;7.51;87.09;97140.80;110139;1252;59673;-70
2023/02/19 03:19:17;;;;;;;16.20;10.10;;;;;;;7.50;87.38;97142.99;110094;1245;59767;-70
2023/02/19 03:20:10;;;;;;;17.40;11.10;;;;;;;7.54;86.46;97153.97;110155;1245;69322;-70
2023/02/19 03:22:43;;;;;;;17.50;10.20;;;;;;;7.53;86.43;97161.89;110081;1245;59782;-69
2023/02/19 03:28:11;;;;;;;17.10;12.20;;;;;;;7.48;86.48;97167.58;110139;1245;70748;-69
2023/02/19 03:30:51;;;;;;;17.40;11.90;;;;;;;7.46;87.04;97167.69;110102;1245;69618;-69
2023/02/19 03:33:26;;;;;;;17.50;10.80;;;;;;;7.39;87.48;97171.91;110034;1246;68432;-69
2023/02/19 03:36:01;;;;;;;14.30;9.60;;;;;;;7.33;87.59;97171.80;109762;1245;59714;-69
2023/02/19 03:38:43;;;;;;;14.30;10.60;;;;;;;7.30;87.37;97165.56;109870;1241;59746;-69
2023/02/19 03:41:49;;;;;;;16.50;10.50;;;;;;;7.29;87.24;97166.36;109860;1245;71405;-69
2023/02/19 03:44:47;;;;;;;17.70;11.80;;;;;;;7.34;86.43;97162.36;110019;1243;68542;-69
2023/02/19 03:47:48;;;;;;;14.90;10.20;;;;;;;7.33;86.37;97166.64;109838;1245;69151;-71
2023/02/19 03:50:23;;;;;;;14.60;9.90;;;;;;;7.30;86.72;97160.38;109842;1241;60071;-69
2023/02/19 03:53:03;;;;;;;15.30;9.80;;;;;;;7.28;86.69;97165.20;110072;1241;59746;-69
2023/02/19 03:56:02;;;;;;;16.80;11.80;;;;;;;7.25;86.60;97169.05;110064;1244;71404;-69
2023/02/19 03:58:54;;;;;;;16.30;11.70;;;;;;;7.25;86.05;97170.74;109757;1246;68351;-69
2023/02/19 04:01:53;;;;;;;16.80;11.40;;;;;;;7.24;85.94;97173.98;109759;1246;69991;-68
2023/02/19 04:04:34;;;;;;;15.10;11.70;;;;;;;7.21;86.16;97170.35;109811;1246;60195;-69
2023/02/19 04:07:05;;;;;;;18.70;11.40;;;;;;;7.17;86.29;97176.64;110124;1244;60077;-69
2023/02/19 04:09:40;;;;;;;16.50;11.70;;;;;;;7.13;86.16;97182.23;110317;1244;70634;-69
2023/02/19 04:12:15;;;;;;;19.30;12.70;;;;;;;7.12;86.44;97177.77;110206;1243;68815;-69
2023/02/19 04:15:00;;;;;;;17.80;11.80;;;;;;;7.12;86.24;97180.90;110118;1244;69261;-69
2023/02/19 04:17:39;;;;;;;18.80;12.30;;;;;;;7.13;86.34;97186.23;110135;1244;59675;-69
2023/02/19 04:20:12;;;;;;;19.60;12.80;;;;;;;7.09;86.63;97187.00;110202;1245;59654;-69
2023/02/19 04:22:42;;;;;;;16.40;11.80;;;;;;;7.07;86.54;97180.91;110160;1243;70319;-69
2023/02/19 04:25:13;;;;;;;17.50;12.20;;;;;;;7.07;86.36;97175.83;110162;1243;68366;-69
2023/02/19 04:27:44;;;;;;;17.40;11.70;;;;;;;7.03;86.66;97180.45;110150;1241;69286;-69
2023/02/19 04:30:15;;;;;;;16.10;11.40;;;;;;;7.02;86.75;97178.27;110159;1241;59711;-69
2023/02/19 04:32:45;;;;;;;16.50;11.90;;;;;;;7.02;86.65;97181.20;110170;1243;59929;-70
2023/02/19 04:35:15;;;;;;;16.50;11.60;;;;;;;6.96;87.16;97181.06;110181;1245;71449;-70
2023/02/19 04:37:47;;;;;;;16.00;11.50;;;;;;;6.90;87.53;97185.06;110220;1244;68167;-70
2023/02/19 04:40:17;;;;;;;17.10;13.00;;;;;;;6.89;87.12;97184.46;110303;1241;69259;-69
2023/02/19 04:42:47;;;;;;;16.60;11.90;;;;;;;6.89;87.66;97181.50;110286;1242;59753;-70
2023/02/19 04:45:17;;;;;;;20.90;14.50;;;;;;;6.79;88.19;97185.71;110282;1241;59646;-70
2023/02/19 04:47:46;;;;;;;20.40;13.50;;;;;;;6.75;88.27;97188.40;110291;1242;71360;-69
2023/02/19 04:50:16;;;;;;;16.40;13.20;;;;;;;6.65;88.98;97185.55;110322;1242;68479;-69
2023/02/19 04:52:46;;;;;;;19.50;13.70;;;;;;;6.61;89.15;97189.96;110263;1249;68351;-69
2023/02/19 04:55:17;;;;;;;19.20;13.10;;;;;;;6.50;89.82;97185.96;110253;1242;59747;-69
2023/02/19 04:57:49;;;;;;;20.70;14.60;;;;;;;6.49;89.94;97190.69;110317;1242;59678;-68
2023/02/19 05:00:19;;;;;;;19.80;13.40;;;;;;;6.41;90.54;97191.33;110140;1246;71214;-69
2023/02/19 05:02:49;;;;;;;18.10;12.50;;;;;;;6.31;91.35;97192.09;110262;1242;69669;-69
2023/02/19 05:05:18;;;;;;;20.80;13.70;;;;;;;6.30;91.47;97194.94;110286;1241;68498;-69
2023/02/19 05:07:48;;;;;;;21.90;13.70;;;;;;;6.30;91.40;97202.02;110254;1242;59696;-69
2023/02/19 05:10:17;;;;;;;21.00;13.90;;;;;;;6.25;91.91;97199.89;110213;1249;59679;-69
2023/02/19 05:12:47;;;;;;;19.40;14.00;;;;;;;6.24;92.23;97203.42;110208;1242;71365;-68
2023/02/19 05:15:16;;;;;;;19.90;13.40;;;;;;;6.25;92.29;97198.49;110246;1242;67581;-69
2023/02/19 05:17:45;;;;;;;18.70;14.20;;;;;;;6.29;92.28;97203.81;110195;1242;69882;-69
2023/02/19 05:20:16;;;;;;;20.10;14.00;;;;;;;6.31;91.99;97198.67;110221;1242;59745;-69
2023/02/19 05:22:46;;;;;;;21.10;14.20;;;;;;;6.34;91.94;97200.58;110206;1242;59651;-69
2023/02/19 05:25:17;;;;;;;21.70;15.10;;;;;;;6.36;91.98;97200.82;110231;1242;69774;-69
2023/02/19 05:27:46;;;;;;;21.10;14.60;;;;;;;6.38;91.68;97202.08;110205;1241;69300;-69
2023/02/19 05:30:15;;;;;;;18.50;12.50;;;;;;;6.40;91.23;97200.03;110189;1242;69903;-69
2023/02/19 05:32:45;;;;;;;17.50;13.10;;;;;;;6.45;90.86;97199.24;110192;1242;59746;-69
2023/02/19 05:35:14;;;;;;;16.70;12.80;;;;;;;6.47;90.84;97204.48;110193;1242;59808;-69
2023/02/19 05:37:43;;;;;;;19.10;12.20;;;;;;;6.48;90.66;97209.79;110166;1242;71170;-69
2023/02/19 05:40:12;;;;;;;15.00;10.50;;;;;;;6.51;90.12;97210.48;110206;1242;69818;-69
2023/02/19 05:42:41;;;;;;;19.40;13.00;;;;;;;6.53;90.21;97210.71;110160;1242;69851;-69
2023/02/19 05:45:10;;;;;;;18.40;12.80;;;;;;;6.57;89.64;97208.39;110203;1240;59738;-69
2023/02/19 05:47:39;;;;;;;16.80;11.50;;;;;;;6.59;89.60;97205.44;110173;1242;59684;-69
2023/02/19 05:50:09;;;;;;;16.40;11.10;;;;;;;6.61;89.04;97201.02;110230;1240;71747;-70
2023/02/19 05:52:38;;;;;;;15.00;11.30;;;;;;;6.65;88.60;97200.61;110253;1242;69824;-70
2023/02/19 05:55:07;;;;;;;14.20;10.30;;;;;;;6.68;88.52;97203.89;110214;1242;69115;-67
2023/02/19 05:57:45;;;;;;;14.10;10.10;;;;;;;6.70;88.58;97203.77;110172;1242;59693;-70
2023/02/19 06:00:17;;;;;;;14.10;9.70;;;;;;;6.72;88.39;97207.45;110214;1240;59725;-70
2023/02/19 06:02:46;;;;;;;14.00;9.80;;;;;;;6.77;87.38;97209.59;110219;1240;70576;-70
2023/02/19 06:05:16;;;;;;;12.90;9.50;;;;;;;6.82;86.86;97208.94;110220;1242;68871;-70
2023/02/19 06:07:45;;;;;;;13.00;9.10;;;;;;;6.89;86.71;97210.41;110171;1241;68504;-70
2023/02/19 06:10:16;;;;;;;14.40;9.70;;;;;;;6.96;85.96;97209.48;110244;1241;59689;-69
2023/02/19 06:12:45;;;;;;;;;;;;;;;7.04;85.86;97210.55;110243;1242;59792;-68
2023/02/19 06:15:14;;;;;;;12.50;9.10;;;;;;;7.09;85.94;97206.77;110218;1241;71872;-68
2023/02/19 06:17:43;;;;;;;13.80;10.70;;;;;;;7.11;84.85;97213.06;110152;1242;70011;-68
2023/02/19 06:20:12;;;;;;;15.90;12.50;;;;;;;7.17;84.56;97212.34;110128;1242;68800;-68
2023/02/19 06:22:41;;;;;;;16.30;10.40;;;;;;;7.21;84.26;97213.66;110174;1243;59704;-69
2023/02/19 06:25:11;;;;;;;15.20;10.00;;;;;;;7.24;83.77;97207.59;110236;1242;59737;-68
2023/02/19 06:27:40;;;;;;;17.20;12.40;;;;;;;7.28;84.33;97202.63;110242;1242;71964;-68
2023/02/19 06:30:10;;;;;;;14.40;10.40;;;;;;;7.26;83.88;97202.23;110222;1242;69584;-68
2023/02/19 06:32:38;;;;;;;17.80;13.30;;;;;;;7.26;84.19;97199.49;110186;1242;69063;-68
2023/02/19 06:35:07;;;;;;;15.00;10.90;;;;;;;7.22;84.90;97194.54;110181;1240;59675;-68
2023/02/19 06:37:36;;;;;;;16.40;12.70;;;;;;;7.19;85.66;97195.59;110217;1243;59931;-68
2023/02/19 06:40:06;;;;;;;13.90;10.60;;;;;;;7.25;84.85;97187.95;110162;1242;71351;-67
2023/02/19 06:42:35;;;;;;;16.50;11.50;;;;;;;7.39;83.92;97181.64;110211;1240;69239;-67
2023/02/19 06:45:04;;;;;;;13.20;9.60;;;;;;;7.56;82.59;97180.55;110205;1242;69867;-67
2023/02/19 06:47:33;;;;;;;12.70;8.90;;;;;;;7.83;80.48;97171.73;110177;1242;59667;-67
2023/02/19 06:50:02;;;;;;;11.20;8.00;;;;;;;8.20;81.89;97163.14;110215;1244;59640;-70
2023/02/19 06:52:31;;;;;;;11.00;9.00;;;;;;;8.52;81.12;97156.17;110227;1242;70395;-70
2023/02/19 06:54:59;;;;;;;11.10;7.80;;;;;;;8.78;77.81;97145.38;110244;1243;69318;-68
2023/02/19 06:57:28;;;;;;;11.60;7.90;;;;;;;9.06;77.03;97140.40;110211;1240;69312;-69
2023/02/19 06:59:57;;;;;;;10.60;7.50;;;;;;;9.31;75.36;97140.90;110214;1242;59664;-69
2023/02/19 07:02:26;;;;;;;8.80;6.60;;;;;;;9.43;72.83;97147.35;110183;1243;60148;-69
2023/02/19 07:04:55;;;;;;;10.80;7.30;;;;;;;9.31;71.88;97143.70;110186;1242;71394;-69
2023/02/19 07:07:25;;;;;;;8.30;6.80;;;;;;;9.13;71.49;97147.56;110234;1242;69123;-69
2023/02/19 07:09:55;;;;;;;9.00;6.60;;;;;;;9.20;71.59;97140.99;110205;1240;69929;-69
2023/02/19 07:12:24;;;;;;;9.90;7.50;;;;;;;9.34;71.85;97142.60;110172;1242;59782;-69
2023/02/19 07:14:52;;;;;;;10.00;6.90;;;;;;;9.21;71.20;97145.95;110175;1242;59681;-69
2023/02/19 07:17:21;;;;;;;9.30;7.10;;;;;;;9.00;71.41;97144.46;110121;1241;71951;-69
2023/02/19 07:19:50;;;;;;;25.10;16.50;;;;;;;9.16;72.57;97146.29;110246;1242;69070;-69
2023/02/19 07:22:19;;;;;;;11.30;8.50;;;;;;;9.20;71.98;97146.05;110219;1245;69075;-69
2023/02/19 07:24:47;;;;;;;15.30;11.30;;;;;;;9.19;71.56;97142.09;110226;1242;59743;-69
2023/02/19 07:27:16;;;;;;;10.30;8.10;;;;;;;9.14;70.86;97138.12;110218;1242;59679;-69
2023/02/19 07:29:45;;;;;;;12.90;9.10;;;;;;;9.20;70.91;97136.63;110133;1242;71976;-69
2023/02/19 07:32:13;;;;;;;17.70;13.40;;;;;;;9.32;72.71;97141.53;110128;1242;69370;-69
2023/02/19 07:34:42;;;;;;;17.80;14.40;;;;;;;9.43;73.86;97137.27;110181;1242;69164;-71
2023/02/19 07:37:11;;;;;;;20.10;14.80;;;;;;;9.44;73.94;97133.84;110210;1242;59763;-69
2023/02/19 07:39:40;;;;;;;16.40;12.20;;;;;;;9.36;73.61;97132.91;110274;1242;59633;-69
2023/02/19 07:42:09;;;;;;;20.20;15.40;;;;;;;9.25;74.32;97134.73;110250;1242;71992;-69
2023/02/19 07:44:38;;;;;;;18.90;14.30;;;;;;;9.12;74.52;97133.59;109905;1242;457054;-69
2023/02/19 07:47:07;;;;;;;19.30;14.50;;;;;;;9.30;75.17;97134.91;110217;1242;69243;-69
2023/02/19 07:49:36;;;;;;;16.80;12.70;;;;;;;9.42;74.68;97134.89;110189;1249;59701;-68
2023/02/19 07:52:04;;;;;;;18.90;13.50;;;;;;;9.37;74.00;97134.91;110284;1242;59672;-69
2023/02/19 07:54:33;;;;;;;21.60;17.70;;;;;;;9.36;72.76;97134.27;110202;1243;69471;-69
2023/02/19 07:57:03;;;;;;;22.50;17.80;;;;;;;8.99;74.10;97136.58;110242;1242;69910;-69
2023/02/19 07:59:31;;;;;;;16.60;13.00;;;;;;;9.01;74.19;97140.59;110153;1242;69255;-68
2023/02/19 08:04:48;;;;;;;17.20;12.00;;;;;;;8.59;74.05;97155.00;110184;1242;59924;-68
2023/02/19 08:07:16;;;;;;;22.30;15.70;;;;;;;8.49;75.66;97154.45;110197;1243;71178;-68
2023/02/19 08:13:17;;;;;;;21.80;15.00;;;;;;;8.44;76.65;97154.45;110207;1242;69228;-68
2023/02/19 08:15:22;;;;;;;17.70;12.10;;;;;;;8.30;76.00;97157.84;110215;1242;59814;-69
2023/02/19 08:17:50;;;;;;;19.60;13.30;;;;;;;8.09;75.89;97159.75;110220;1242;59708;-69
2023/02/19 08:20:19;;;;;;;19.60;13.80;;;;;;;8.11;75.44;97160.98;110186;1241;71339;-68
2023/02/19 08:22:48;;;;;;;17.70;12.00;;;;;;;8.04;76.37;97167.36;110181;1249;69893;-68
2023/02/19 08:25:17;;;;;;;17.80;12.70;;;;;;;8.04;76.79;97173.96;110176;1244;67558;-68
2023/02/19 08:27:46;;;;;;;16.10;11.00;;;;;;;8.02;76.03;97177.54;110190;1242;59693;-68
2023/02/19 08:30:14;;;;;;;23.10;14.70;;;;;;;7.83;76.63;97167.89;110272;1242;59659;-68
2023/02/19 08:32:43;;;;;;;21.30;14.90;;;;;;;7.96;76.95;97168.05;110252;1242;70243;-68
2023/02/19 08:35:11;;;;;;;21.10;14.80;;;;;;;7.94;77.24;97166.31;110229;1242;70172;-69
2023/02/19 08:37:40;;;;;;;25.30;17.40;;;;;;;7.99;78.05;97169.98;110224;1242;69159;-68
2023/02/19 08:40:10;;;;;;;20.40;14.20;;;;;;;8.05;77.70;97173.91;110192;1242;59684;-68
2023/02/19 08:42:39;;;;;;;26.00;16.80;;;;;;;8.02;78.39;97183.83;110195;1243;59737;-69
2023/02/19 08:45:08;;;;;;;20.90;15.50;;;;;;;8.00;77.97;97171.84;110126;1244;71439;-68
2023/02/19 08:47:38;;;;;;;19.40;15.00;;;;;;;7.95;78.22;97173.54;110228;1242;69934;-69
2023/02/19 08:50:07;;;;;;;23.00;15.50;;;;;;;7.85;79.02;97172.94;110215;1241;69289;-70
2023/02/19 08:52:37;;;;;;;22.50;15.70;;;;;;;7.82;78.60;97160.81;110237;1241;59729;-67
2023/02/19 08:55:06;;;;;;;22.30;14.80;;;;;;;7.78;80.03;97156.06;110241;1243;59643;-66
2023/02/19 08:57:38;;;;;;;24.50;16.30;;;;;;;7.79;79.52;97151.70;110204;1242;71852;-66
2023/02/19 09:00:10;;;;;;;23.10;15.60;;;;;;;7.79;79.26;97148.56;110213;1244;69158;-66
2023/02/19 09:02:38;;;;;;;22.50;15.60;;;;;;;8.00;79.36;97140.89;110208;1241;69274;-66
2023/02/19 09:05:09;;;;;;;25.50;17.00;;;;;;;8.16;78.70;97135.86;110164;1242;59693;-66
2023/02/19 09:07:38;;;;;;;23.80;16.60;;;;;;;8.51;78.85;97133.13;110214;1242;59673;-66
2023/02/19 09:10:12;;;;;;;24.00;18.60;;;;;;;8.87;77.20;97124.02;110241;1240;71343;-66
2023/02/19 09:12:41;;;;;;;24.90;18.50;;;;;;;9.22;74.87;97127.43;110251;1242;69043;-66
2023/02/19 09:15:09;;;;;;;23.20;16.70;;;;;;;9.38;74.58;97136.55;110203;1242;69293;-66
2023/02/19 09:17:39;;;;;;;20.10;16.10;;;;;;;9.48;73.99;97137.74;110258;1242;59693;-66
2023/02/19 09:20:09;;;;;;;22.50;17.40;;;;;;;9.43;74.15;97133.41;110247;1242;59745;-67
2023/02/19 09:22:38;;;;;;;22.60;16.30;;;;;;;9.53;73.61;97127.84;110233;1242;70413;-67
2023/02/19 09:25:06;;;;;;;21.70;15.60;;;;;;;9.77;74.52;97120.46;110197;1241;69846;-67
2023/02/19 09:27:35;;;;;;;21.60;16.60;;;;;;;9.92;73.52;97117.14;110205;1241;68352;-67
2023/02/19 09:30:04;;;;;;;19.60;14.70;;;;;;;10.09;72.60;97124.19;110217;1241;60091;-67
2023/02/19 09:32:33;;;;;;;20.40;15.10;;;;;;;10.12;71.64;97130.03;110241;1241;59727;-67
2023/02/19 09:35:01;;;;;;;20.30;15.70;;;;;;;10.08;71.74;97129.46;110217;1241;71373;-67
2023/02/19 09:37:30;;;;;;;22.90;17.10;;;;;;;9.88;72.55;97125.04;110218;1242;69231;-67
2023/02/19 09:40:01;;;;;;;22.40;16.10;;;;;;;9.80;72.53;97126.02;110166;1241;69886;-67
2023/02/19 09:42:32;;;;;;;20.00;14.80;;;;;;;9.74;72.57;97126.31;110244;1242;59666;-67
2023/02/19 09:45:03;;;;;;;19.50;16.40;;;;;;;9.70;72.68;97130.27;110152;1242;60135;-67
2023/02/19 09:47:33;;;;;;;23.20;17.30;;;;;;;9.73;73.02;97132.08;110179;1242;72298;-67
2023/02/19 09:50:11;;;;;;;20.20;14.80;;;;;;;9.83;72.72;97135.70;110177;1240;69804;-67
2023/02/19 09:52:50;;;;;;;23.20;15.80;;;;;;;9.91;72.09;97136.32;110196;1242;69750;-67
2023/02/19 09:55:35;;;;;;;20.20;15.30;;;;;;;10.03;71.33;97135.60;110211;1241;60104;-67
2023/02/19 09:58:24;;;;;;;19.50;14.00;;;;;;;10.20;71.19;97134.88;110197;1242;59747;-67
2023/02/19 10:00:56;;;;;;;21.80;14.60;;;;;;;10.30;70.45;97127.52;110190;1242;71358;-66
2023/02/19 10:03:33;;;;;;;18.80;14.20;;;;;;;10.21;69.95;97127.85;110184;1242;69220;-68
2023/02/19 10:06:23;;;;;;;17.60;12.60;;;;;;;10.20;69.66;97129.83;110228;1242;69161;-67
2023/02/19 10:08:58;;;;;;;19.30;14.30;;;;;;;10.09;69.68;97132.69;110254;1241;59699;-66
2023/02/19 10:11:27;;;;;;;16.40;13.10;;;;;;;10.06;69.73;97129.14;110207;1242;59687;-67
2023/02/19 10:14:08;;;;;;;15.00;12.50;;;;;;;10.06;69.78;97128.27;110227;1242;71806;-67
2023/02/19 10:16:43;;;;;;;14.60;11.70;;;;;;;10.01;67.86;97116.98;110208;1241;69306;-66
2023/02/19 10:19:13;;;;;;;15.30;12.30;;;;;;;9.98;67.08;97110.55;110168;1242;70160;-67
2023/02/19 10:21:42;;;;;;;;;;;;;;;9.94;68.20;97108.24;110265;1247;59691;-67
2023/02/19 10:24:21;;;;;;;18.30;12.90;;;;;;;10.03;68.58;97106.02;110254;1242;59643;-67
2023/02/19 10:26:50;;;;;;;21.90;15.90;;;;;;;10.15;69.67;97102.48;110228;1248;71337;-67
2023/02/19 10:29:20;;;;;;;18.10;13.70;;;;;;;10.16;69.85;97100.50;110295;1242;68443;-67
2023/02/19 10:32:13;;;;;;;18.00;13.60;;;;;;;9.97;70.01;97094.98;110219;1241;69074;-68
2023/02/19 10:34:42;;;;;;;17.30;13.10;;;;;;;9.86;70.45;97093.86;110216;1249;59678;-68
2023/02/19 10:37:15;;;;;;;16.40;12.10;;;;;;;9.91;71.38;97093.00;110234;1242;60059;-68
2023/02/19 10:39:49;;;;;;;16.10;12.50;;;;;;;9.92;70.43;97089.45;110312;1243;71273;-68
2023/02/19 10:42:22;;;;;;;17.90;14.00;;;;;;;9.81;70.95;97086.08;110255;1242;69730;-68
2023/02/19 10:45:00;;;;;;;16.30;12.30;;;;;;;9.80;70.64;97076.95;110249;1241;69643;-68
2023/02/19 10:47:32;;;;;;;15.80;11.70;;;;;;;9.74;70.60;97074.58;110223;1244;59750;-68
2023/02/19 10:50:00;;;;;;;16.20;11.90;;;;;;;9.69;70.92;97078.61;110255;1242;59764;-68
2023/02/19 10:52:35;;;;;;;18.30;12.20;;;;;;;9.73;70.65;97077.66;110223;1242;70793;-68
2023/02/19 10:55:15;;;;;;;14.60;10.80;;;;;;;9.63;70.57;97072.96;110238;1242;69802;-68
2023/02/19 10:57:43;;;;;;;15.40;11.30;;;;;;;9.64;70.33;97067.50;110111;1240;69364;-68
2023/02/19 11:00:15;;;;;;;16.20;11.30;;;;;;;9.69;70.52;97066.08;110265;1242;59744;-68
2023/02/19 11:02:44;;;;;;;16.80;12.00;;;;;;;9.73;70.43;97069.45;110250;1242;59683;-68
2023/02/19 11:05:22;;;;;;;14.90;11.30;;;;;;;9.71;70.37;97067.69;110278;1241;70621;-68
2023/02/19 11:07:57;;;;;;;15.60;12.10;;;;;;;9.83;70.42;97061.77;110217;1242;69054;-68
2023/02/19 11:10:41;;;;;;;14.50;10.60;;;;;;;9.85;69.77;97051.69;110200;1242;69743;-68
2023/02/19 11:13:16;;;;;;;16.90;12.50;;;;;;;9.89;69.30;97042.35;110217;1240;59753;-68
2023/02/19 11:15:52;;;;;;;13.60;10.50;;;;;;;9.88;69.12;97051.81;110206;1242;59688;-68
2023/02/19 11:18:24;;;;;;;13.20;10.70;;;;;;;9.79;68.54;97054.08;110220;1243;71491;-68
2023/02/19 11:21:04;;;;;;;13.50;9.00;;;;;;;9.75;68.55;97047.73;110220;1242;69224;-68
2023/02/19 11:23:37;;;;;;;14.00;10.10;;;;;;;9.80;68.87;97044.59;110154;1242;69193;-68
2023/02/19 11:26:18;;;;;;;13.10;9.80;;;;;;;9.84;68.26;97043.21;110196;1241;59688;-68
2023/02/19 11:28:59;;;;;;;13.60;9.70;;;;;;;9.89;68.22;97037.27;110166;1242;59691;-68
2023/02/19 11:31:32;;;;;;;13.90;9.30;;;;;;;9.97;67.79;97028.99;110224;1242;70407;-68
2023/02/19 11:34:13;;;;;;;12.60;9.60;;;;;;;10.07;67.53;97023.73;110194;1242;69714;-68
2023/02/19 11:36:42;;;;;;;12.70;9.20;;;;;;;10.09;67.81;97023.69;110264;1241;68878;-67
2023/02/19 11:39:14;;;;;;;11.80;9.10;;;;;;;10.20;66.71;97021.85;110168;1242;59690;-68
2023/02/19 11:41:55;;;;;;;12.10;8.50;;;;;;;10.26;66.46;97019.00;110176;1241;59666;-68
2023/02/19 11:44:31;;;;;;;12.40;8.80;;;;;;;10.29;66.81;97012.30;110212;1242;71194;-66
2023/02/19 11:47:38;;;;;;;10.50;8.30;;;;;;;10.36;66.74;97020.46;110176;1242;69227;-66
2023/02/19 11:50:26;;;;;;;11.30;7.50;;;;;;;10.36;65.58;97024.27;110213;1240;69066;-69
2023/02/19 11:53:02;;;;;;;10.60;7.60;;;;;;;10.28;64.92;97023.38;110185;1241;59738;-67
2023/02/19 11:55:50;;;;;;;10.60;7.10;;;;;;;10.29;65.25;97018.42;110224;1242;59691;-66
2023/02/19 11:58:57;;;;;;;9.50;7.00;;;;;;;10.28;64.97;97019.48;110257;1242;70454;-66
2023/02/19 12:01:52;;;;;;;9.80;7.40;;;;;;;10.21;65.34;97011.30;109981;1241;68572;-66
2023/02/19 12:04:50;;;;;;;9.30;6.10;;;;;;;10.15;65.70;97017.13;110221;1242;69252;-67
2023/02/19 12:07:48;;;;;;;9.40;6.80;;;;;;;10.11;65.65;97015.73;110138;1241;59728;-66